This is the latest recevied weather packets stored in our database for station/object KB1ZFK. If no packets are shown the sender has not sent any weather packets the latest 10 day(s).
| Time | Temp. | Humidity | Pressure | Rain* | Wind** | Luminosity | Snow |
|---|---|---|---|---|---|---|---|
| 1777486174 | 15° C | 62% | 1014.6 hPa | 0 mm | - | 805 W/m² | - |
| 1777485872 | 15.56° C | 60% | 1014.8 hPa | 0 mm | - | 832 W/m² | - |
| 1777485567 | 15.56° C | 60% | 1014.7 hPa | 0 mm | - | 843 W/m² | - |
| 1777485264 | 15° C | 63% | 1014.7 hPa | 0 mm | - | 842 W/m² | - |
| 1777484960 | 14.44° C | 64% | 1014.7 hPa | 0 mm | - | 858 W/m² | - |
| 1777484657 | 15° C | 62% | 1014.5 hPa | 0 mm | - | 868 W/m² | - |
| 1777484353 | 14.44° C | 62% | 1014.9 hPa | 0 mm | - | 847 W/m² | - |
| 1777484049 | 15° C | 64% | 1015 hPa | 0 mm | - | 782 W/m² | - |
| 1777483746 | 14.44° C | 62% | 1015 hPa | 0 mm | - | 901 W/m² | - |
| 1777483442 | 13.89° C | 65% | 1014.9 hPa | 0 mm | - | 892 W/m² | - |
| 1777483137 | 14.44° C | 63% | 1014.9 hPa | 0 mm | - | 888 W/m² | - |
| 1777482834 | 13.33° C | 67% | 1015 hPa | 0 mm | - | 873 W/m² | - |
| 1777482530 | 13.89° C | 66% | 1014.9 hPa | 0 mm | - | 867 W/m² | - |
| 1777482228 | 13.33° C | 67% | 1015 hPa | 0 mm | - | 876 W/m² | - |
| 1777481925 | 12.78° C | 69% | 1015.2 hPa | 0 mm | - | 848 W/m² | - |
| 1777481622 | 12.78° C | 69% | 1015.3 hPa | 0 mm | - | 828 W/m² | - |
| 1777481319 | 12.78° C | 68% | 1015.6 hPa | 0 mm | - | 850 W/m² | - |
| 1777481016 | 11.67° C | 73% | 1015.6 hPa | 0 mm | - | 975 W/m² | - |
| 1777480712 | 11.67° C | 73% | 1015.5 hPa | 0 mm | - | 515 W/m² | - |
| 1777480409 | 12.22° C | 70% | 1015.3 hPa | 0 mm | - | 573 W/m² | - |
| 1777480105 | 12.22° C | 69% | 1015.4 hPa | 0 mm | - | 300 W/m² | - |
| 1777479802 | 12.78° C | 68% | 1015.4 hPa | 0 mm | - | 523 W/m² | - |
| 1777479499 | 12.22° C | 70% | 1015.4 hPa | 0 mm | - | 499 W/m² | - |
| 1777479196 | 12.78° C | 68% | 1015.3 hPa | 0 mm | - | 934 W/m² | - |
| 1777478893 | 12.78° C | 68% | 1015.2 hPa | 0 mm | - | 432 W/m² | - |
* Rain latest hour (hover to see other rain measurements)
** Current wind speed in m/s (hover to see current wind gust speed)